sensor_id;sensor_type;location;lat;lon;timestamp;P1;durP1;ratioP1;P2;durP2;ratioP2
58354;SDS011;44160;49.080;19.302;2023-07-13T00:02:24;7.88;;;4.25;;
58354;SDS011;44160;49.080;19.302;2023-07-13T00:04:51;6.57;;;4.40;;
58354;SDS011;44160;49.080;19.302;2023-07-13T00:07:17;5.10;;;4.20;;
58354;SDS011;44160;49.080;19.302;2023-07-13T00:09:45;9.55;;;5.35;;
58354;SDS011;44160;49.080;19.302;2023-07-13T00:12:28;8.77;;;5.80;;
58354;SDS011;44160;49.080;19.302;2023-07-13T00:14:58;11.82;;;6.28;;
58354;SDS011;44160;49.080;19.302;2023-07-13T00:17:25;9.27;;;7.03;;
58354;SDS011;44160;49.080;19.302;2023-07-13T00:19:52;6.25;;;5.40;;
58354;SDS011;44160;49.080;19.302;2023-07-13T00:22:18;7.00;;;5.65;;
58354;SDS011;44160;49.080;19.302;2023-07-13T00:24:45;8.45;;;5.20;;
58354;SDS011;44160;49.080;19.302;2023-07-13T00:27:11;7.80;;;6.18;;
58354;SDS011;44160;49.080;19.302;2023-07-13T00:29:37;9.68;;;5.75;;
58354;SDS011;44160;49.080;19.302;2023-07-13T00:32:04;9.38;;;5.93;;
58354;SDS011;44160;49.080;19.302;2023-07-13T00:34:30;9.68;;;5.32;;
58354;SDS011;44160;49.080;19.302;2023-07-13T00:36:56;7.85;;;6.07;;
58354;SDS011;44160;49.080;19.302;2023-07-13T00:39:23;9.23;;;6.25;;
58354;SDS011;44160;49.080;19.302;2023-07-13T00:41:49;9.75;;;7.03;;
58354;SDS011;44160;49.080;19.302;2023-07-13T00:44:16;7.90;;;5.28;;
58354;SDS011;44160;49.080;19.302;2023-07-13T00:46:43;7.43;;;4.65;;
58354;SDS011;44160;49.080;19.302;2023-07-13T00:49:10;7.07;;;4.68;;
58354;SDS011;44160;49.080;19.302;2023-07-13T00:51:44;7.30;;;5.13;;
58354;SDS011;44160;49.080;19.302;2023-07-13T00:54:11;12.73;;;5.13;;
58354;SDS011;44160;49.080;19.302;2023-07-13T00:56:39;6.65;;;4.70;;
58354;SDS011;44160;49.080;19.302;2023-07-13T00:59:06;5.90;;;4.85;;
58354;SDS011;44160;49.080;19.302;2023-07-13T01:01:32;7.50;;;4.65;;
58354;SDS011;44160;49.080;19.302;2023-07-13T01:03:58;5.70;;;4.78;;
58354;SDS011;44160;49.080;19.302;2023-07-13T01:06:24;6.50;;;4.65;;
58354;SDS011;44160;49.080;19.302;2023-07-13T01:08:50;10.70;;;4.88;;
58354;SDS011;44160;49.080;19.302;2023-07-13T01:11:20;7.10;;;5.38;;
58354;SDS011;44160;49.080;19.302;2023-07-13T01:13:47;9.00;;;5.25;;
58354;SDS011;44160;49.080;19.302;2023-07-13T01:18:56;7.55;;;4.35;;
58354;SDS011;44160;49.080;19.302;2023-07-13T01:21:29;7.57;;;3.92;;
58354;SDS011;44160;49.080;19.302;2023-07-13T01:23:55;7.78;;;4.60;;
58354;SDS011;44160;49.080;19.302;2023-07-13T01:26:21;6.10;;;4.25;;
58354;SDS011;44160;49.080;19.302;2023-07-13T01:28:47;6.07;;;4.18;;
58354;SDS011;44160;49.080;19.302;2023-07-13T01:31:13;7.53;;;3.95;;
58354;SDS011;44160;49.080;19.302;2023-07-13T01:33:40;5.88;;;4.05;;
58354;SDS011;44160;49.080;19.302;2023-07-13T01:36:06;16.48;;;5.60;;
58354;SDS011;44160;49.080;19.302;2023-07-13T01:38:33;14.82;;;6.63;;
58354;SDS011;44160;49.080;19.302;2023-07-13T01:40:59;9.65;;;4.97;;
58354;SDS011;44160;49.080;19.302;2023-07-13T01:43:25;13.73;;;4.82;;
58354;SDS011;44160;49.080;19.302;2023-07-13T01:45:51;13.30;;;4.55;;
58354;SDS011;44160;49.080;19.302;2023-07-13T01:48:17;10.10;;;4.50;;
58354;SDS011;44160;49.080;19.302;2023-07-13T01:50:44;12.63;;;4.38;;
58354;SDS011;44160;49.080;19.302;2023-07-13T01:53:10;8.10;;;3.90;;
58354;SDS011;44160;49.080;19.302;2023-07-13T01:55:36;7.43;;;3.30;;
58354;SDS011;44160;49.080;19.302;2023-07-13T01:58:03;7.47;;;3.45;;
58354;SDS011;44160;49.080;19.302;2023-07-13T02:00:29;6.20;;;3.85;;
58354;SDS011;44160;49.080;19.302;2023-07-13T02:02:55;9.93;;;4.22;;
58354;SDS011;44160;49.080;19.302;2023-07-13T02:05:21;6.60;;;4.05;;
58354;SDS011;44160;49.080;19.302;2023-07-13T02:07:47;9.60;;;3.50;;
58354;SDS011;44160;49.080;19.302;2023-07-13T02:10:14;9.45;;;3.78;;
58354;SDS011;44160;49.080;19.302;2023-07-13T02:12:40;8.57;;;4.50;;
58354;SDS011;44160;49.080;19.302;2023-07-13T02:15:07;9.70;;;3.78;;
58354;SDS011;44160;49.080;19.302;2023-07-13T02:17:33;8.95;;;4.05;;
58354;SDS011;44160;49.080;19.302;2023-07-13T02:19:59;5.45;;;3.20;;
58354;SDS011;44160;49.080;19.302;2023-07-13T02:22:25;9.68;;;3.25;;
58354;SDS011;44160;49.080;19.302;2023-07-13T02:24:51;6.00;;;3.65;;
58354;SDS011;44160;49.080;19.302;2023-07-13T02:27:18;7.75;;;4.47;;
58354;SDS011;44160;49.080;19.302;2023-07-13T02:29:44;7.93;;;3.92;;
58354;SDS011;44160;49.080;19.302;2023-07-13T02:32:10;11.63;;;4.30;;
58354;SDS011;44160;49.080;19.302;2023-07-13T02:34:36;9.85;;;4.65;;
58354;SDS011;44160;49.080;19.302;2023-07-13T02:37:02;10.40;;;4.75;;
58354;SDS011;44160;49.080;19.302;2023-07-13T02:39:28;9.88;;;4.55;;
58354;SDS011;44160;49.080;19.302;2023-07-13T02:41:54;9.98;;;4.82;;
58354;SDS011;44160;49.080;19.302;2023-07-13T02:44:20;6.43;;;3.85;;
58354;SDS011;44160;49.080;19.302;2023-07-13T02:46:46;5.55;;;3.42;;
58354;SDS011;44160;49.080;19.302;2023-07-13T02:49:12;6.95;;;3.38;;
58354;SDS011;44160;49.080;19.302;2023-07-13T02:51:38;5.40;;;2.80;;
58354;SDS011;44160;49.080;19.302;2023-07-13T02:54:04;5.38;;;3.08;;
58354;SDS011;44160;49.080;19.302;2023-07-13T02:56:32;3.92;;;2.30;;
58354;SDS011;44160;49.080;19.302;2023-07-13T02:58:58;4.43;;;2.97;;
58354;SDS011;44160;49.080;19.302;2023-07-13T03:01:24;4.05;;;2.58;;
58354;SDS011;44160;49.080;19.302;2023-07-13T03:03:50;6.05;;;3.13;;
58354;SDS011;44160;49.080;19.302;2023-07-13T03:06:17;4.45;;;2.67;;
58354;SDS011;44160;49.080;19.302;2023-07-13T03:08:43;4.97;;;3.00;;
58354;SDS011;44160;49.080;19.302;2023-07-13T03:11:11;4.32;;;2.42;;
58354;SDS011;44160;49.080;19.302;2023-07-13T03:13:38;5.50;;;3.15;;
58354;SDS011;44160;49.080;19.302;2023-07-13T03:16:04;4.40;;;3.33;;
58354;SDS011;44160;49.080;19.302;2023-07-13T03:18:30;10.60;;;4.20;;
58354;SDS011;44160;49.080;19.302;2023-07-13T03:20:57;5.18;;;4.05;;
58354;SDS011;44160;49.080;19.302;2023-07-13T03:23:23;10.02;;;4.30;;
58354;SDS011;44160;49.080;19.302;2023-07-13T03:25:50;5.18;;;3.65;;
58354;SDS011;44160;49.080;19.302;2023-07-13T03:28:16;5.13;;;3.80;;
58354;SDS011;44160;49.080;19.302;2023-07-13T03:30:42;5.63;;;4.05;;
58354;SDS011;44160;49.080;19.302;2023-07-13T03:33:08;8.75;;;3.67;;
58354;SDS011;44160;49.080;19.302;2023-07-13T03:35:35;6.55;;;3.50;;
58354;SDS011;44160;49.080;19.302;2023-07-13T03:38:01;6.97;;;3.80;;
58354;SDS011;44160;49.080;19.302;2023-07-13T03:40:27;6.05;;;3.80;;
58354;SDS011;44160;49.080;19.302;2023-07-13T03:42:53;5.35;;;3.25;;
58354;SDS011;44160;49.080;19.302;2023-07-13T03:45:19;6.13;;;3.33;;
58354;SDS011;44160;49.080;19.302;2023-07-13T03:47:45;7.03;;;3.40;;
58354;SDS011;44160;49.080;19.302;2023-07-13T03:50:12;8.88;;;4.10;;
58354;SDS011;44160;49.080;19.302;2023-07-13T03:52:38;4.97;;;3.08;;
58354;SDS011;44160;49.080;19.302;2023-07-13T03:55:04;5.68;;;3.45;;
58354;SDS011;44160;49.080;19.302;2023-07-13T03:57:31;5.28;;;3.13;;
58354;SDS011;44160;49.080;19.302;2023-07-13T03:59:57;5.28;;;3.15;;
58354;SDS011;44160;49.080;19.302;2023-07-13T04:02:23;5.43;;;3.15;;
58354;SDS011;44160;49.080;19.302;2023-07-13T04:04:49;7.30;;;2.92;;
58354;SDS011;44160;49.080;19.302;2023-07-13T04:07:15;5.35;;;3.55;;
58354;SDS011;44160;49.080;19.302;2023-07-13T04:09:41;4.07;;;3.25;;
58354;SDS011;44160;49.080;19.302;2023-07-13T04:12:08;5.78;;;3.60;;
58354;SDS011;44160;49.080;19.302;2023-07-13T04:14:34;5.72;;;3.47;;
58354;SDS011;44160;49.080;19.302;2023-07-13T04:17:00;4.55;;;3.25;;
58354;SDS011;44160;49.080;19.302;2023-07-13T04:19:26;7.10;;;2.95;;
58354;SDS011;44160;49.080;19.302;2023-07-13T04:21:52;5.90;;;3.47;;
58354;SDS011;44160;49.080;19.302;2023-07-13T04:24:18;5.75;;;3.60;;
58354;SDS011;44160;49.080;19.302;2023-07-13T04:26:44;6.75;;;4.10;;
58354;SDS011;44160;49.080;19.302;2023-07-13T04:29:10;8.48;;;5.45;;
58354;SDS011;44160;49.080;19.302;2023-07-13T04:31:36;8.38;;;5.30;;
58354;SDS011;44160;49.080;19.302;2023-07-13T04:34:02;9.57;;;5.75;;
58354;SDS011;44160;49.080;19.302;2023-07-13T04:36:28;10.73;;;6.35;;
58354;SDS011;44160;49.080;19.302;2023-07-13T04:38:54;9.38;;;7.15;;
58354;SDS011;44160;49.080;19.302;2023-07-13T04:41:21;8.73;;;6.63;;
58354;SDS011;44160;49.080;19.302;2023-07-13T04:43:47;15.43;;;4.80;;
58354;SDS011;44160;49.080;19.302;2023-07-13T04:46:14;5.57;;;3.65;;
58354;SDS011;44160;49.080;19.302;2023-07-13T04:48:42;5.57;;;3.25;;
58354;SDS011;44160;49.080;19.302;2023-07-13T04:51:08;4.93;;;3.20;;
58354;SDS011;44160;49.080;19.302;2023-07-13T04:53:34;4.20;;;2.42;;
58354;SDS011;44160;49.080;19.302;2023-07-13T04:56:00;4.03;;;2.10;;
58354;SDS011;44160;49.080;19.302;2023-07-13T04:58:26;5.50;;;2.08;;
58354;SDS011;44160;49.080;19.302;2023-07-13T05:00:53;3.95;;;2.63;;
58354;SDS011;44160;49.080;19.302;2023-07-13T05:03:19;8.32;;;3.30;;
58354;SDS011;44160;49.080;19.302;2023-07-13T05:05:54;5.22;;;3.30;;
58354;SDS011;44160;49.080;19.302;2023-07-13T05:08:20;6.35;;;3.40;;
58354;SDS011;44160;49.080;19.302;2023-07-13T05:10:46;5.57;;;2.92;;
58354;SDS011;44160;49.080;19.302;2023-07-13T05:13:12;7.40;;;3.20;;
58354;SDS011;44160;49.080;19.302;2023-07-13T05:15:38;5.38;;;3.10;;
58354;SDS011;44160;49.080;19.302;2023-07-13T05:18:04;6.15;;;2.67;;
58354;SDS011;44160;49.080;19.302;2023-07-13T05:20:30;6.78;;;2.38;;
58354;SDS011;44160;49.080;19.302;2023-07-13T05:22:56;5.70;;;1.92;;
58354;SDS011;44160;49.080;19.302;2023-07-13T05:25:22;4.00;;;1.77;;
58354;SDS011;44160;49.080;19.302;2023-07-13T05:27:49;2.90;;;2.00;;
58354;SDS011;44160;49.080;19.302;2023-07-13T05:30:15;3.13;;;1.55;;
58354;SDS011;44160;49.080;19.302;2023-07-13T05:32:41;2.88;;;1.83;;
58354;SDS011;44160;49.080;19.302;2023-07-13T05:35:07;3.03;;;1.85;;
58354;SDS011;44160;49.080;19.302;2023-07-13T05:37:33;3.40;;;2.03;;
58354;SDS011;44160;49.080;19.302;2023-07-13T05:39:59;8.30;;;2.60;;
58354;SDS011;44160;49.080;19.302;2023-07-13T05:42:26;3.40;;;2.10;;
58354;SDS011;44160;49.080;19.302;2023-07-13T05:44:52;3.10;;;1.80;;
58354;SDS011;44160;49.080;19.302;2023-07-13T05:47:18;2.40;;;1.55;;
58354;SDS011;44160;49.080;19.302;2023-07-13T05:49:45;2.60;;;1.63;;
58354;SDS011;44160;49.080;19.302;2023-07-13T05:52:11;5.30;;;1.88;;
58354;SDS011;44160;49.080;19.302;2023-07-13T05:54:37;4.60;;;2.25;;
58354;SDS011;44160;49.080;19.302;2023-07-13T05:57:03;5.55;;;2.10;;
58354;SDS011;44160;49.080;19.302;2023-07-13T05:59:29;2.22;;;1.80;;
58354;SDS011;44160;49.080;19.302;2023-07-13T06:01:55;5.43;;;2.30;;
58354;SDS011;44160;49.080;19.302;2023-07-13T06:04:21;5.05;;;1.95;;
58354;SDS011;44160;49.080;19.302;2023-07-13T06:06:47;3.33;;;2.08;;
58354;SDS011;44160;49.080;19.302;2023-07-13T06:09:13;4.60;;;2.08;;
58354;SDS011;44160;49.080;19.302;2023-07-13T06:11:39;4.85;;;2.00;;
58354;SDS011;44160;49.080;19.302;2023-07-13T06:14:05;5.10;;;2.00;;
58354;SDS011;44160;49.080;19.302;2023-07-13T06:16:31;5.70;;;2.13;;
58354;SDS011;44160;49.080;19.302;2023-07-13T06:18:57;2.40;;;2.00;;
58354;SDS011;44160;49.080;19.302;2023-07-13T06:21:24;2.65;;;1.88;;
58354;SDS011;44160;49.080;19.302;2023-07-13T06:23:52;2.70;;;2.10;;
58354;SDS011;44160;49.080;19.302;2023-07-13T06:26:19;5.32;;;2.15;;
58354;SDS011;44160;49.080;19.302;2023-07-13T06:28:45;2.90;;;1.92;;
58354;SDS011;44160;49.080;19.302;2023-07-13T06:31:12;5.05;;;2.13;;
58354;SDS011;44160;49.080;19.302;2023-07-13T06:33:38;4.45;;;2.22;;
58354;SDS011;44160;49.080;19.302;2023-07-13T06:36:05;2.83;;;1.95;;
58354;SDS011;44160;49.080;19.302;2023-07-13T06:38:31;5.38;;;1.98;;
58354;SDS011;44160;49.080;19.302;2023-07-13T06:40:57;3.05;;;1.95;;
58354;SDS011;44160;49.080;19.302;2023-07-13T06:43:23;2.50;;;1.77;;
58354;SDS011;44160;49.080;19.302;2023-07-13T06:45:50;4.30;;;2.33;;
58354;SDS011;44160;49.080;19.302;2023-07-13T06:48:16;2.63;;;1.88;;
58354;SDS011;44160;49.080;19.302;2023-07-13T06:50:42;4.53;;;2.28;;
58354;SDS011;44160;49.080;19.302;2023-07-13T06:53:09;5.65;;;2.72;;
58354;SDS011;44160;49.080;19.302;2023-07-13T06:55:35;7.25;;;2.50;;
58354;SDS011;44160;49.080;19.302;2023-07-13T06:58:01;3.03;;;2.45;;
58354;SDS011;44160;49.080;19.302;2023-07-13T07:00:27;5.97;;;2.80;;
58354;SDS011;44160;49.080;19.302;2023-07-13T07:02:53;6.75;;;2.47;;
58354;SDS011;44160;49.080;19.302;2023-07-13T07:05:19;3.55;;;2.22;;
58354;SDS011;44160;49.080;19.302;2023-07-13T07:07:47;5.10;;;2.45;;
58354;SDS011;44160;49.080;19.302;2023-07-13T07:10:13;5.95;;;2.65;;
58354;SDS011;44160;49.080;19.302;2023-07-13T07:12:39;4.80;;;3.08;;
58354;SDS011;44160;49.080;19.302;2023-07-13T07:15:05;3.28;;;2.20;;
58354;SDS011;44160;49.080;19.302;2023-07-13T07:17:31;4.40;;;2.50;;
58354;SDS011;44160;49.080;19.302;2023-07-13T07:19:57;4.95;;;2.22;;
58354;SDS011;44160;49.080;19.302;2023-07-13T07:22:25;4.70;;;2.22;;
58354;SDS011;44160;49.080;19.302;2023-07-13T07:24:52;5.80;;;2.60;;
58354;SDS011;44160;49.080;19.302;2023-07-13T07:27:19;5.13;;;2.40;;
58354;SDS011;44160;49.080;19.302;2023-07-13T07:29:45;2.80;;;2.50;;
58354;SDS011;44160;49.080;19.302;2023-07-13T07:32:11;3.67;;;2.83;;
58354;SDS011;44160;49.080;19.302;2023-07-13T07:34:37;4.18;;;2.42;;
58354;SDS011;44160;49.080;19.302;2023-07-13T07:37:03;5.90;;;2.60;;
58354;SDS011;44160;49.080;19.302;2023-07-13T07:39:29;2.50;;;2.30;;
58354;SDS011;44160;49.080;19.302;2023-07-13T07:41:55;5.25;;;2.42;;
58354;SDS011;44160;49.080;19.302;2023-07-13T07:44:22;5.38;;;2.97;;
58354;SDS011;44160;49.080;19.302;2023-07-13T07:46:48;3.92;;;2.63;;
58354;SDS011;44160;49.080;19.302;2023-07-13T07:49:14;3.97;;;2.40;;
58354;SDS011;44160;49.080;19.302;2023-07-13T07:51:40;6.05;;;3.10;;
58354;SDS011;44160;49.080;19.302;2023-07-13T07:54:08;4.95;;;2.72;;
58354;SDS011;44160;49.080;19.302;2023-07-13T07:56:35;5.07;;;2.50;;
58354;SDS011;44160;49.080;19.302;2023-07-13T07:59:10;4.45;;;2.65;;
58354;SDS011;44160;49.080;19.302;2023-07-13T08:01:36;2.88;;;2.35;;
58354;SDS011;44160;49.080;19.302;2023-07-13T08:04:02;3.83;;;2.63;;
58354;SDS011;44160;49.080;19.302;2023-07-13T08:06:28;4.38;;;2.90;;
58354;SDS011;44160;49.080;19.302;2023-07-13T08:08:55;3.15;;;2.33;;
58354;SDS011;44160;49.080;19.302;2023-07-13T08:11:21;5.90;;;2.90;;
58354;SDS011;44160;49.080;19.302;2023-07-13T08:13:47;4.00;;;3.00;;
58354;SDS011;44160;49.080;19.302;2023-07-13T08:16:15;5.00;;;2.92;;
58354;SDS011;44160;49.080;19.302;2023-07-13T08:18:42;4.85;;;2.88;;
58354;SDS011;44160;49.080;19.302;2023-07-13T08:21:08;6.05;;;3.05;;
58354;SDS011;44160;49.080;19.302;2023-07-13T08:23:38;4.43;;;3.63;;
58354;SDS011;44160;49.080;19.302;2023-07-13T08:26:08;4.80;;;3.83;;
58354;SDS011;44160;49.080;19.302;2023-07-13T08:28:35;5.88;;;4.00;;
58354;SDS011;44160;49.080;19.302;2023-07-13T08:31:02;6.93;;;4.00;;
58354;SDS011;44160;49.080;19.302;2023-07-13T08:33:28;5.22;;;3.85;;
58354;SDS011;44160;49.080;19.302;2023-07-13T08:35:54;6.45;;;4.53;;
58354;SDS011;44160;49.080;19.302;2023-07-13T08:38:20;7.00;;;4.55;;
58354;SDS011;44160;49.080;19.302;2023-07-13T08:40:53;7.50;;;4.75;;
58354;SDS011;44160;49.080;19.302;2023-07-13T08:43:25;6.97;;;4.90;;
58354;SDS011;44160;49.080;19.302;2023-07-13T08:48:28;8.63;;;5.72;;
58354;SDS011;44160;49.080;19.302;2023-07-13T08:53:57;5.30;;;4.70;;
58354;SDS011;44160;49.080;19.302;2023-07-13T08:56:25;7.25;;;5.50;;
58354;SDS011;44160;49.080;19.302;2023-07-13T08:58:57;6.63;;;5.65;;
58354;SDS011;44160;49.080;19.302;2023-07-13T09:01:32;6.60;;;5.65;;
58354;SDS011;44160;49.080;19.302;2023-07-13T09:04:05;9.70;;;5.32;;
58354;SDS011;44160;49.080;19.302;2023-07-13T09:06:42;6.47;;;5.47;;
58354;SDS011;44160;49.080;19.302;2023-07-13T09:12:02;7.45;;;5.32;;
58354;SDS011;44160;49.080;19.302;2023-07-13T09:16:56;5.30;;;4.80;;
58354;SDS011;44160;49.080;19.302;2023-07-13T09:19:27;8.52;;;4.80;;
58354;SDS011;44160;49.080;19.302;2023-07-13T09:21:54;6.55;;;4.90;;
58354;SDS011;44160;49.080;19.302;2023-07-13T09:24:37;5.32;;;4.20;;
58354;SDS011;44160;49.080;19.302;2023-07-13T09:27:23;5.38;;;4.20;;
58354;SDS011;44160;49.080;19.302;2023-07-13T09:32:47;6.28;;;4.32;;
58354;SDS011;44160;49.080;19.302;2023-07-13T09:35:15;5.78;;;4.32;;
58354;SDS011;44160;49.080;19.302;2023-07-13T09:37:42;5.43;;;3.85;;
58354;SDS011;44160;49.080;19.302;2023-07-13T09:40:11;4.80;;;3.47;;
58354;SDS011;44160;49.080;19.302;2023-07-13T09:42:39;5.55;;;3.72;;
58354;SDS011;44160;49.080;19.302;2023-07-13T09:45:05;3.50;;;3.20;;
58354;SDS011;44160;49.080;19.302;2023-07-13T09:47:33;4.68;;;3.35;;
58354;SDS011;44160;49.080;19.302;2023-07-13T09:50:07;5.65;;;3.40;;
58354;SDS011;44160;49.080;19.302;2023-07-13T09:52:44;3.65;;;3.10;;
58354;SDS011;44160;49.080;19.302;2023-07-13T09:55:55;4.78;;;3.15;;
58354;SDS011;44160;49.080;19.302;2023-07-13T09:57:56;5.18;;;3.33;;
58354;SDS011;44160;49.080;19.302;2023-07-13T10:00:29;5.78;;;3.17;;
58354;SDS011;44160;49.080;19.302;2023-07-13T10:03:00;4.13;;;3.08;;
58354;SDS011;44160;49.080;19.302;2023-07-13T10:05:26;3.60;;;2.55;;
58354;SDS011;44160;49.080;19.302;2023-07-13T10:07:53;3.33;;;2.80;;
58354;SDS011;44160;49.080;19.302;2023-07-13T10:10:22;3.88;;;2.85;;
58354;SDS011;44160;49.080;19.302;2023-07-13T10:12:49;4.45;;;3.10;;
58354;SDS011;44160;49.080;19.302;2023-07-13T10:15:18;3.72;;;2.70;;
58354;SDS011;44160;49.080;19.302;2023-07-13T10:17:45;3.42;;;2.92;;
58354;SDS011;44160;49.080;19.302;2023-07-13T10:20:11;3.25;;;2.58;;
58354;SDS011;44160;49.080;19.302;2023-07-13T10:25:17;6.40;;;2.70;;
58354;SDS011;44160;49.080;19.302;2023-07-13T10:27:44;3.65;;;2.63;;
58354;SDS011;44160;49.080;19.302;2023-07-13T10:30:17;3.58;;;2.40;;
58354;SDS011;44160;49.080;19.302;2023-07-13T10:32:45;3.20;;;2.40;;
58354;SDS011;44160;49.080;19.302;2023-07-13T10:35:11;3.40;;;2.78;;
58354;SDS011;44160;49.080;19.302;2023-07-13T10:37:44;7.20;;;2.80;;
58354;SDS011;44160;49.080;19.302;2023-07-13T10:40:14;3.88;;;3.00;;
58354;SDS011;44160;49.080;19.302;2023-07-13T10:42:43;2.83;;;2.20;;
58354;SDS011;44160;49.080;19.302;2023-07-13T10:45:18;3.72;;;2.70;;
58354;SDS011;44160;49.080;19.302;2023-07-13T10:47:47;5.68;;;2.90;;
58354;SDS011;44160;49.080;19.302;2023-07-13T10:50:26;5.65;;;2.90;;
58354;SDS011;44160;49.080;19.302;2023-07-13T10:52:55;2.78;;;2.42;;
58354;SDS011;44160;49.080;19.302;2023-07-13T10:55:34;4.30;;;2.85;;
58354;SDS011;44160;49.080;19.302;2023-07-13T10:58:28;7.15;;;3.15;;
58354;SDS011;44160;49.080;19.302;2023-07-13T11:01:03;4.80;;;2.33;;
58354;SDS011;44160;49.080;19.302;2023-07-13T11:03:30;4.63;;;2.15;;
58354;SDS011;44160;49.080;19.302;2023-07-13T11:09:30;4.35;;;2.50;;
58354;SDS011;44160;49.080;19.302;2023-07-13T11:12:00;3.45;;;2.13;;
58354;SDS011;44160;49.080;19.302;2023-07-13T11:14:29;2.33;;;1.83;;
58354;SDS011;44160;49.080;19.302;2023-07-13T11:16:56;2.00;;;1.70;;
58354;SDS011;44160;49.080;19.302;2023-07-13T11:19:29;2.47;;;2.28;;
58354;SDS011;44160;49.080;19.302;2023-07-13T11:24:57;2.08;;;1.83;;
58354;SDS011;44160;49.080;19.302;2023-07-13T11:30:20;3.83;;;2.25;;
58354;SDS011;44160;49.080;19.302;2023-07-13T11:32:40;4.90;;;2.42;;
58354;SDS011;44160;49.080;19.302;2023-07-13T11:35:12;3.45;;;2.22;;
58354;SDS011;44160;49.080;19.302;2023-07-13T11:37:39;2.50;;;2.00;;
58354;SDS011;44160;49.080;19.302;2023-07-13T11:40:11;3.70;;;2.50;;
58354;SDS011;44160;49.080;19.302;2023-07-13T11:42:38;3.45;;;2.67;;
58354;SDS011;44160;49.080;19.302;2023-07-13T11:45:12;4.45;;;2.38;;
58354;SDS011;44160;49.080;19.302;2023-07-13T11:47:48;7.93;;;2.92;;
58354;SDS011;44160;49.080;19.302;2023-07-13T11:50:18;6.55;;;3.03;;
58354;SDS011;44160;49.080;19.302;2023-07-13T11:52:45;3.88;;;3.00;;
58354;SDS011;44160;49.080;19.302;2023-07-13T11:55:16;7.53;;;3.35;;
58354;SDS011;44160;49.080;19.302;2023-07-13T12:00:15;4.03;;;3.30;;
58354;SDS011;44160;49.080;19.302;2023-07-13T12:02:44;5.80;;;2.95;;
58354;SDS011;44160;49.080;19.302;2023-07-13T12:05:12;4.38;;;2.95;;
58354;SDS011;44160;49.080;19.302;2023-07-13T12:07:40;6.88;;;3.20;;
58354;SDS011;44160;49.080;19.302;2023-07-13T12:12:36;5.40;;;3.95;;
58354;SDS011;44160;49.080;19.302;2023-07-13T12:15:05;7.15;;;3.33;;
58354;SDS011;44160;49.080;19.302;2023-07-13T12:17:31;5.55;;;3.40;;
58354;SDS011;44160;49.080;19.302;2023-07-13T12:19:59;8.63;;;3.55;;
58354;SDS011;44160;49.080;19.302;2023-07-13T12:22:25;3.97;;;3.28;;
58354;SDS011;44160;49.080;19.302;2023-07-13T12:24:51;4.45;;;3.47;;
58354;SDS011;44160;49.080;19.302;2023-07-13T12:27:24;6.78;;;3.53;;
58354;SDS011;44160;49.080;19.302;2023-07-13T12:29:58;3.88;;;3.42;;
58354;SDS011;44160;49.080;19.302;2023-07-13T12:32:24;3.30;;;3.00;;
58354;SDS011;44160;49.080;19.302;2023-07-13T12:34:51;3.63;;;2.63;;
58354;SDS011;44160;49.080;19.302;2023-07-13T12:37:18;4.90;;;2.92;;
58354;SDS011;44160;49.080;19.302;2023-07-13T12:39:45;5.63;;;2.30;;
58354;SDS011;44160;49.080;19.302;2023-07-13T12:47:26;1.98;;;1.50;;
58354;SDS011;44160;49.080;19.302;2023-07-13T12:49:54;2.28;;;1.48;;
58354;SDS011;44160;49.080;19.302;2023-07-13T12:52:22;2.88;;;1.35;;
58354;SDS011;44160;49.080;19.302;2023-07-13T12:55:10;1.70;;;0.98;;
58354;SDS011;44160;49.080;19.302;2023-07-13T12:58:03;1.58;;;1.10;;
58354;SDS011;44160;49.080;19.302;2023-07-13T13:00:29;1.83;;;1.30;;
58354;SDS011;44160;49.080;19.302;2023-07-13T13:03:34;2.50;;;1.60;;
58354;SDS011;44160;49.080;19.302;2023-07-13T13:06:06;2.00;;;1.35;;
58354;SDS011;44160;49.080;19.302;2023-07-13T13:08:33;2.47;;;1.77;;
58354;SDS011;44160;49.080;19.302;2023-07-13T13:11:00;2.53;;;1.50;;
58354;SDS011;44160;49.080;19.302;2023-07-13T13:13:26;2.22;;;1.58;;
58354;SDS011;44160;49.080;19.302;2023-07-13T13:15:52;4.18;;;2.50;;
58354;SDS011;44160;49.080;19.302;2023-07-13T13:18:22;2.97;;;2.28;;
58354;SDS011;44160;49.080;19.302;2023-07-13T13:20:49;3.53;;;1.20;;
58354;SDS011;44160;49.080;19.302;2023-07-13T13:23:17;1.75;;;1.17;;
58354;SDS011;44160;49.080;19.302;2023-07-13T13:25:44;2.20;;;1.10;;
58354;SDS011;44160;49.080;19.302;2023-07-13T13:28:14;1.48;;;1.30;;
58354;SDS011;44160;49.080;19.302;2023-07-13T13:30:41;2.95;;;1.10;;
58354;SDS011;44160;49.080;19.302;2023-07-13T13:33:11;1.40;;;1.20;;
58354;SDS011;44160;49.080;19.302;2023-07-13T13:35:44;2.38;;;1.65;;
58354;SDS011;44160;49.080;19.302;2023-07-13T13:38:11;2.05;;;1.13;;
58354;SDS011;44160;49.080;19.302;2023-07-13T13:40:39;1.00;;;0.90;;
58354;SDS011;44160;49.080;19.302;2023-07-13T13:43:40;1.65;;;1.17;;
58354;SDS011;44160;49.080;19.302;2023-07-13T13:45:59;1.55;;;1.05;;
58354;SDS011;44160;49.080;19.302;2023-07-13T13:48:27;1.70;;;1.30;;
58354;SDS011;44160;49.080;19.302;2023-07-13T13:50:56;1.75;;;1.20;;
58354;SDS011;44160;49.080;19.302;2023-07-13T13:53:22;1.27;;;1.10;;
58354;SDS011;44160;49.080;19.302;2023-07-13T13:55:49;2.70;;;1.38;;
58354;SDS011;44160;49.080;19.302;2023-07-13T13:58:15;1.83;;;1.35;;
58354;SDS011;44160;49.080;19.302;2023-07-13T14:00:41;3.47;;;1.70;;
58354;SDS011;44160;49.080;19.302;2023-07-13T14:03:17;3.92;;;3.08;;
58354;SDS011;44160;49.080;19.302;2023-07-13T14:05:44;1.83;;;1.00;;
58354;SDS011;44160;49.080;19.302;2023-07-13T14:08:14;3.78;;;1.20;;
58354;SDS011;44160;49.080;19.302;2023-07-13T14:10:41;3.20;;;1.08;;
58354;SDS011;44160;49.080;19.302;2023-07-13T14:13:14;1.88;;;1.38;;
58354;SDS011;44160;49.080;19.302;2023-07-13T14:15:42;1.50;;;1.33;;
58354;SDS011;44160;49.080;19.302;2023-07-13T14:18:08;1.48;;;1.10;;
58354;SDS011;44160;49.080;19.302;2023-07-13T14:20:35;1.85;;;1.10;;
58354;SDS011;44160;49.080;19.302;2023-07-13T14:23:01;3.70;;;1.10;;
58354;SDS011;44160;49.080;19.302;2023-07-13T14:25:27;1.60;;;1.10;;
58354;SDS011;44160;49.080;19.302;2023-07-13T14:27:54;0.93;;;0.82;;
58354;SDS011;44160;49.080;19.302;2023-07-13T14:30:22;1.20;;;1.02;;
58354;SDS011;44160;49.080;19.302;2023-07-13T14:32:48;2.38;;;1.00;;
58354;SDS011;44160;49.080;19.302;2023-07-13T14:35:18;0.95;;;0.85;;
58354;SDS011;44160;49.080;19.302;2023-07-13T14:37:47;3.15;;;1.52;;
58354;SDS011;44160;49.080;19.302;2023-07-13T14:40:21;2.10;;;1.50;;
58354;SDS011;44160;49.080;19.302;2023-07-13T14:42:50;3.33;;;0.90;;
58354;SDS011;44160;49.080;19.302;2023-07-13T14:45:17;2.17;;;1.08;;
58354;SDS011;44160;49.080;19.302;2023-07-13T14:47:43;1.50;;;1.10;;
58354;SDS011;44160;49.080;19.302;2023-07-13T14:50:22;1.80;;;0.95;;
58354;SDS011;44160;49.080;19.302;2023-07-13T14:52:53;1.27;;;0.98;;
58354;SDS011;44160;49.080;19.302;2023-07-13T14:55:19;3.28;;;1.10;;
58354;SDS011;44160;49.080;19.302;2023-07-13T14:57:46;1.15;;;1.05;;
58354;SDS011;44160;49.080;19.302;2023-07-13T15:00:14;1.42;;;1.10;;
58354;SDS011;44160;49.080;19.302;2023-07-13T15:02:44;1.30;;;1.08;;
58354;SDS011;44160;49.080;19.302;2023-07-13T15:05:22;1.30;;;1.20;;
58354;SDS011;44160;49.080;19.302;2023-07-13T15:07:49;2.55;;;1.10;;
58354;SDS011;44160;49.080;19.302;2023-07-13T15:10:16;1.02;;;0.93;;
58354;SDS011;44160;49.080;19.302;2023-07-13T15:12:43;1.67;;;1.17;;
58354;SDS011;44160;49.080;19.302;2023-07-13T15:15:10;1.30;;;1.13;;
58354;SDS011;44160;49.080;19.302;2023-07-13T15:17:40;1.95;;;1.30;;